Time;durP1;ratioP1;P1;durP2;ratioP2;P2;SDS_P1;SDS_P2;PMS_P1;PMS_P2;Temp;Humidity;BMP_temperature;BMP_pressure;BME280_temperature;BME280_humidity;BME280_pressure;Samples;Min_cycle;Max_cycle;Signal;HPM_P1;HPM_P2
2021/12/16 00:02:44;;;;;;;;;;;5.00;99.90;;;;;;5065886;28;20227;-71
2021/12/16 00:05:28;;;;;;;;;;;5.00;99.90;;;;;;5082857;28;20134;-71
2021/12/16 00:08:00;;;;;;;;;;;5.00;99.90;;;;;;5086095;28;20134;-71
2021/12/16 00:10:32;;;;;;;;;;;5.00;99.90;;;;;;5084696;28;19927;-71
2021/12/16 00:29:59;;;;;;;;;;;5.00;99.90;;;;;;5085326;28;19979;-71
2021/12/16 00:32:43;;;;;;;;;;;5.00;99.90;;;;;;5085184;28;19956;-71
2021/12/16 00:35:11;;;;;;;;;;;5.00;99.90;;;;;;5064532;28;19920;-72
2021/12/16 00:37:37;;;;;;;;;;;5.00;99.90;;;;;;5065230;28;19927;-71
2021/12/16 00:40:07;;;;;;;;;;;4.90;99.90;;;;;;5070850;28;19927;-71
2021/12/16 00:42:42;;;;;;;;;;;4.90;99.90;;;;;;5065301;28;19920;-71
2021/12/16 00:45:30;;;;;;;;;;;4.90;99.90;;;;;;5077495;28;19962;-72
2021/12/16 00:48:00;;;;;;;;;;;4.90;99.90;;;;;;5084774;28;19924;-71
2021/12/16 00:56:00;;;;;;;;;;;5.00;99.90;;;;;;5084746;28;19923;-71
2021/12/16 00:58:31;;;;;;;;;;;5.00;99.90;;;;;;5084974;28;19974;-71
2021/12/16 01:01:06;;;;;;;;;;;4.90;99.90;;;;;;5084655;28;19921;-71
2021/12/16 01:03:39;;;;;;;;;;;5.00;99.90;;;;;;5084442;28;19926;-71
2021/12/16 01:33:44;;;;;;;;;;;4.90;99.90;;;;;;5064121;28;20040;-75
2021/12/16 01:36:23;;;;;;;;;;;4.90;99.90;;;;;;5064037;28;20231;-71
2021/12/16 01:47:26;;;;;;;;;;;4.90;99.90;;;;;;5084219;28;19927;-71
2021/12/16 01:50:00;;;;;;;;;;;4.90;99.90;;;;;;5076098;28;19921;-71
2021/12/16 01:55:23;;;;;;;;;;;4.90;99.90;;;;;;5067506;28;19959;-70
2021/12/16 01:57:54;;;;;;;;;;;4.90;99.90;;;;;;5084096;28;20157;-71
2021/12/16 02:00:28;;;;;;;;;;;4.90;99.90;;;;;;5083132;28;19920;-71
2021/12/16 02:03:01;;;;;;;;;;;4.90;99.90;;;;;;5083762;28;20266;-71
2021/12/16 02:05:39;;;;;;;;;;;4.90;99.90;;;;;;5083314;28;19924;-71
2021/12/16 02:27:22;;;;;;;;;;;4.80;99.90;;;;;;5032896;28;19928;-73
2021/12/16 02:28:16;;;;;;;;;;;4.80;99.90;;;;;;5016928;28;19940;-72
2021/12/16 02:33:51;;;;;;;;;;;4.80;99.90;;;;;;5023976;28;19924;-74
2021/12/16 02:36:28;;;;;;;;;;;4.80;99.90;;;;;;5023883;28;19945;-74
2021/12/16 02:38:58;;;;;;;;;;;4.80;99.90;;;;;;5023600;28;19928;-74
2021/12/16 02:41:26;;;;;;;;;;;4.70;99.90;;;;;;5023858;28;19926;-74
2021/12/16 02:44:19;;;;;;;;;;;4.80;99.90;;;;;;5023660;28;19943;-74
2021/12/16 02:49:33;;;;;;;;;;;4.80;99.90;;;;;;5023629;28;19985;-74
2021/12/16 02:52:00;;;;;;;;;;;4.80;99.90;;;;;;5023766;28;19921;-74
2021/12/16 02:54:28;;;;;;;;;;;4.80;99.90;;;;;;5023502;28;19976;-74
2021/12/16 02:56:55;;;;;;;;;;;4.80;99.90;;;;;;5041224;28;19921;-74
2021/12/16 02:59:26;;;;;;;;;;;4.80;99.90;;;;;;5043035;28;19921;-74
2021/12/16 03:01:55;;;;;;;;;;;4.80;99.90;;;;;;5043391;28;19956;-74
2021/12/16 03:04:23;;;;;;;;;;;4.80;99.90;;;;;;5043221;28;19928;-75
2021/12/16 03:06:52;;;;;;;;;;;4.70;99.90;;;;;;5043036;28;20401;-74
2021/12/16 03:09:28;;;;;;;;;;;4.70;99.90;;;;;;5043174;28;19921;-74
2021/12/16 03:12:28;;;;;;;;;;;4.70;99.90;;;;;;5047117;28;19928;-74
2021/12/16 03:14:50;;;;;;;;;;;4.70;99.90;;;;;;5046298;28;20122;-74
2021/12/16 03:17:24;;;;;;;;;;;4.70;99.90;;;;;;5046956;28;19925;-74
2021/12/16 03:20:00;;;;;;;;;;;4.70;99.90;;;;;;5046710;28;19921;-74
2021/12/16 03:22:48;;;;;;;;;;;4.70;99.90;;;;;;5027130;28;20161;-75
2021/12/16 03:25:22;;;;;;;;;;;4.70;99.90;;;;;;5026868;28;19921;-74
2021/12/16 03:28:27;;;;;;;;;;;4.70;99.90;;;;;;5040498;28;19921;-74
2021/12/16 03:31:20;;;;;;;;;;;4.70;99.90;;;;;;5045948;28;19921;-74
2021/12/16 03:34:19;;;;;;;;;;;4.70;99.90;;;;;;5046154;28;19917;-74
2021/12/16 03:37:13;;;;;;;;;;;4.60;99.90;;;;;;5046536;28;19959;-74
2021/12/16 03:39:40;;;;;;;;;;;4.70;99.90;;;;;;5046410;28;20111;-75
2021/12/16 03:42:07;;;;;;;;;;;4.60;99.90;;;;;;5046476;28;19928;-74
2021/12/16 03:44:49;;;;;;;;;;;4.70;99.90;;;;;;5046187;28;19944;-74
2021/12/16 03:47:16;;;;;;;;;;;4.70;99.90;;;;;;5046373;28;20148;-74
2021/12/16 03:49:43;;;;;;;;;;;4.70;99.90;;;;;;5045996;28;19921;-74
2021/12/16 03:52:09;;;;;;;;;;;4.70;99.90;;;;;;5044598;28;19936;-74
2021/12/16 03:54:40;;;;;;;;;;;4.70;99.90;;;;;;5045981;28;19929;-74
2021/12/16 03:57:09;;;;;;;;;;;4.80;99.90;;;;;;5046269;28;19922;-74
2021/12/16 03:59:38;;;;;;;;;;;4.80;99.90;;;;;;5046000;28;19944;-74
2021/12/16 04:02:11;;;;;;;;;;;4.70;99.90;;;;;;5045806;28;20135;-74
2021/12/16 04:04:38;;;;;;;;;;;4.70;99.90;;;;;;5045566;28;19921;-74
2021/12/16 04:07:05;;;;;;;;;;;4.80;99.90;;;;;;5045703;28;19927;-74
2021/12/16 04:09:33;;;;;;;;;;;4.70;99.90;;;;;;5045382;28;19927;-74
2021/12/16 04:12:08;;;;;;;;;;;4.70;99.90;;;;;;5045971;28;19935;-74
2021/12/16 04:14:35;;;;;;;;;;;4.70;99.90;;;;;;5045800;28;20097;-74
2021/12/16 04:17:04;;;;;;;;;;;4.70;99.90;;;;;;5045955;28;20020;-74
2021/12/16 04:19:31;;;;;;;;;;;4.70;99.90;;;;;;5045730;28;19982;-74
2021/12/16 04:21:59;;;;;;;;;;;4.70;99.90;;;;;;5044926;28;20139;-74
2021/12/16 04:24:26;;;;;;;;;;;4.60;99.90;;;;;;5045517;28;20093;-73
2021/12/16 04:26:53;;;;;;;;;;;4.60;99.90;;;;;;5045658;28;19936;-74
2021/12/16 04:29:23;;;;;;;;;;;4.60;99.90;;;;;;5044858;28;19921;-74
2021/12/16 04:31:50;;;;;;;;;;;4.60;99.90;;;;;;5045527;28;19956;-74
2021/12/16 04:34:19;;;;;;;;;;;4.60;99.90;;;;;;5044744;28;19921;-75
2021/12/16 04:36:45;;;;;;;;;;;4.60;99.90;;;;;;5045391;28;19927;-74
2021/12/16 04:39:13;;;;;;;;;;;4.70;99.90;;;;;;5045093;28;19929;-74
2021/12/16 04:41:41;;;;;;;;;;;4.70;99.90;;;;;;5044894;28;19921;-74
2021/12/16 04:44:08;;;;;;;;;;;4.70;99.90;;;;;;5044793;28;20216;-74
2021/12/16 04:46:35;;;;;;;;;;;4.70;99.90;;;;;;5044881;28;19921;-74
2021/12/16 04:49:03;;;;;;;;;;;4.70;99.90;;;;;;5045084;28;19928;-75
2021/12/16 04:51:33;;;;;;;;;;;4.80;99.90;;;;;;5045010;28;19928;-74
2021/12/16 04:53:59;;;;;;;;;;;4.80;99.90;;;;;;5044931;28;19925;-74
2021/12/16 04:56:27;;;;;;;;;;;4.80;99.90;;;;;;5041077;28;19928;-74
2021/12/16 04:58:54;;;;;;;;;;;4.80;99.90;;;;;;5026641;28;19921;-74
2021/12/16 05:01:21;;;;;;;;;;;4.70;99.90;;;;;;5024781;28;20141;-74
2021/12/16 05:03:48;;;;;;;;;;;4.70;99.90;;;;;;5027264;28;19929;-74
2021/12/16 05:06:15;;;;;;;;;;;4.80;99.90;;;;;;5044706;28;19921;-74
2021/12/16 05:08:43;;;;;;;;;;;4.70;99.90;;;;;;5044704;28;19927;-74
2021/12/16 05:11:12;;;;;;;;;;;4.70;99.90;;;;;;5043912;28;19921;-73
2021/12/16 05:13:39;;;;;;;;;;;4.70;99.90;;;;;;5044582;28;19921;-74
2021/12/16 05:16:07;;;;;;;;;;;4.70;99.90;;;;;;5043870;28;19936;-74
2021/12/16 05:18:36;;;;;;;;;;;4.70;99.90;;;;;;5044486;28;20082;-74
2021/12/16 05:21:05;;;;;;;;;;;4.70;99.90;;;;;;5043978;28;20212;-74
2021/12/16 05:26:23;;;;;;;;;;;4.80;99.90;;;;;;5024102;28;19924;-74
2021/12/16 05:28:52;;;;;;;;;;;4.70;99.90;;;;;;5044331;28;19928;-75
2021/12/16 05:31:20;;;;;;;;;;;4.70;99.90;;;;;;5042164;28;19961;-75
2021/12/16 05:33:47;;;;;;;;;;;4.70;99.90;;;;;;5042403;28;19928;-75
2021/12/16 05:36:15;;;;;;;;;;;4.70;99.90;;;;;;5042610;28;19922;-74
2021/12/16 05:38:42;;;;;;;;;;;4.70;99.90;;;;;;5044250;28;19921;-75
2021/12/16 05:41:10;;;;;;;;;;;4.70;99.90;;;;;;5036866;28;19922;-75
2021/12/16 05:43:38;;;;;;;;;;;4.70;99.90;;;;;;5023830;28;20231;-75
2021/12/16 05:46:07;;;;;;;;;;;4.70;99.90;;;;;;5023859;28;19921;-75
2021/12/16 05:48:36;;;;;;;;;;;4.70;99.90;;;;;;5024292;28;19928;-75
2021/12/16 05:51:04;;;;;;;;;;;4.70;99.90;;;;;;5039349;28;19921;-75
2021/12/16 05:53:31;;;;;;;;;;;4.70;99.90;;;;;;5044209;28;20115;-75
2021/12/16 05:55:58;;;;;;;;;;;4.70;99.90;;;;;;5044519;28;20100;-75
2021/12/16 05:58:25;;;;;;;;;;;4.70;99.90;;;;;;5043913;28;20204;-75
2021/12/16 06:00:55;;;;;;;;;;;4.70;99.90;;;;;;5039578;28;19992;-75
2021/12/16 06:03:22;;;;;;;;;;;4.70;99.90;;;;;;5024136;28;19922;-75
2021/12/16 06:05:49;;;;;;;;;;;4.70;99.90;;;;;;5024735;28;20239;-75
2021/12/16 06:08:16;;;;;;;;;;;4.70;99.90;;;;;;5024498;28;19928;-75
2021/12/16 06:11:13;;;;;;;;;;;4.70;99.90;;;;;;5024017;28;19922;-76
2021/12/16 06:13:45;;;;;;;;;;;4.70;99.90;;;;;;5043350;28;19929;-75
2021/12/16 06:27:13;;;;;;;;;;;4.70;99.90;;;;;;5023489;28;19956;-73
2021/12/16 06:29:41;;;;;;;;;;;4.70;99.90;;;;;;5023622;28;20170;-74
2021/12/16 06:32:09;;;;;;;;;;;4.80;99.90;;;;;;5022719;28;19928;-74
2021/12/16 06:34:36;;;;;;;;;;;4.70;99.90;;;;;;5023597;28;19929;-74
2021/12/16 06:37:03;;;;;;;;;;;4.70;99.90;;;;;;5038950;28;19929;-72
2021/12/16 06:39:30;;;;;;;;;;;4.70;99.90;;;;;;5042726;28;19945;-75
2021/12/16 06:41:58;;;;;;;;;;;4.70;99.90;;;;;;5023441;28;19926;-75
2021/12/16 06:44:29;;;;;;;;;;;4.70;99.90;;;;;;5023452;28;19928;-76
2021/12/16 06:47:01;;;;;;;;;;;4.70;99.90;;;;;;5027470;28;20236;-75
2021/12/16 06:49:30;;;;;;;;;;;4.70;99.90;;;;;;5027686;28;19929;-75
2021/12/16 06:52:01;;;;;;;;;;;4.70;99.90;;;;;;5030964;28;19976;-75
2021/12/16 06:54:31;;;;;;;;;;;4.70;99.90;;;;;;5027430;28;19964;-75
2021/12/16 06:57:13;;;;;;;;;;;4.70;99.90;;;;;;5027636;28;19945;-75
2021/12/16 06:59:50;;;;;;;;;;;4.70;99.90;;;;;;5027194;28;19984;-75
2021/12/16 07:02:31;;;;;;;;;;;4.80;99.90;;;;;;5027037;28;19921;-75
2021/12/16 07:04:59;;;;;;;;;;;4.80;99.90;;;;;;5041740;28;19925;-75
2021/12/16 07:07:26;;;;;;;;;;;4.70;99.90;;;;;;5047161;28;19928;-75
2021/12/16 07:09:53;;;;;;;;;;;4.80;99.90;;;;;;5046489;28;19921;-76
2021/12/16 07:12:26;;;;;;;;;;;4.70;99.90;;;;;;5041204;28;19928;-75
2021/12/16 07:14:52;;;;;;;;;;;4.70;99.90;;;;;;5042199;28;19928;-75
2021/12/16 07:17:19;;;;;;;;;;;4.70;99.90;;;;;;5031426;28;19922;-75
2021/12/16 07:19:46;;;;;;;;;;;4.70;99.90;;;;;;5027063;28;19928;-75
2021/12/16 07:22:14;;;;;;;;;;;4.70;99.90;;;;;;5026864;28;19976;-75
2021/12/16 07:24:41;;;;;;;;;;;4.70;99.90;;;;;;5026672;28;20116;-75
2021/12/16 07:27:08;;;;;;;;;;;4.70;99.90;;;;;;5026899;28;19943;-73
2021/12/16 07:29:35;;;;;;;;;;;4.70;99.90;;;;;;5026805;28;19921;-75
2021/12/16 07:32:02;;;;;;;;;;;4.70;99.90;;;;;;5026632;28;19921;-75
2021/12/16 07:34:28;;;;;;;;;;;4.70;99.90;;;;;;5026676;28;19960;-75
2021/12/16 07:36:55;;;;;;;;;;;4.70;99.90;;;;;;5026807;28;19922;-75
2021/12/16 07:39:28;;;;;;;;;;;4.70;99.90;;;;;;5026762;28;19921;-75
2021/12/16 07:41:55;;;;;;;;;;;4.70;99.90;;;;;;5026447;28;19929;-75
2021/12/16 07:44:22;;;;;;;;;;;4.70;99.90;;;;;;5026464;28;19968;-75
2021/12/16 07:46:49;;;;;;;;;;;4.70;99.90;;;;;;5026600;28;19922;-75
2021/12/16 07:49:17;;;;;;;;;;;4.70;99.90;;;;;;5026286;28;19943;-75
2021/12/16 07:51:45;;;;;;;;;;;4.70;99.90;;;;;;5026509;28;20212;-75
2021/12/16 07:54:12;;;;;;;;;;;4.70;99.90;;;;;;5026280;28;19928;-75
2021/12/16 07:56:41;;;;;;;;;;;4.70;99.90;;;;;;5025434;28;19929;-75
2021/12/16 07:59:08;;;;;;;;;;;4.70;99.90;;;;;;5026323;28;19921;-75
2021/12/16 08:01:35;;;;;;;;;;;4.60;99.90;;;;;;5026246;28;19922;-75
2021/12/16 08:04:02;;;;;;;;;;;4.70;99.90;;;;;;5026705;28;20094;-73
2021/12/16 08:06:29;;;;;;;;;;;4.70;99.90;;;;;;5045293;28;20238;-75
2021/12/16 08:08:57;;;;;;;;;;;4.70;99.90;;;;;;5039428;28;19927;-75
2021/12/16 08:11:25;;;;;;;;;;;4.70;99.90;;;;;;5025600;28;19953;-75
2021/12/16 08:13:54;;;;;;;;;;;4.70;99.90;;;;;;5025412;28;19922;-75
2021/12/16 08:16:22;;;;;;;;;;;4.70;99.90;;;;;;5039769;28;19988;-75
2021/12/16 08:18:49;;;;;;;;;;;4.70;99.90;;;;;;5045504;28;19921;-75
2021/12/16 08:21:15;;;;;;;;;;;4.70;99.90;;;;;;5045093;28;19943;-75
2021/12/16 08:23:42;;;;;;;;;;;4.80;99.90;;;;;;5045046;28;20112;-73
2021/12/16 08:26:09;;;;;;;;;;;4.70;99.90;;;;;;5045148;28;19921;-73
2021/12/16 08:28:35;;;;;;;;;;;4.70;99.90;;;;;;5045142;28;19921;-73
2021/12/16 08:31:05;;;;;;;;;;;4.70;99.90;;;;;;5044726;28;19921;-73
2021/12/16 08:33:31;;;;;;;;;;;4.80;99.90;;;;;;5100788;22;20008;-70
2021/12/16 08:35:58;;;;;;;;;;;4.80;99.90;;;;;;5055946;28;19921;-70
2021/12/16 08:38:25;;;;;;;;;;;4.80;99.90;;;;;;5044975;28;19940;-69
2021/12/16 08:40:53;;;;;;;;;;;4.80;99.90;;;;;;5044929;28;19927;-71
2021/12/16 08:43:20;;;;;;;;;;;4.80;99.90;;;;;;5044824;28;19927;-70
2021/12/16 08:45:47;;;;;;;;;;;4.80;99.90;;;;;;5044351;28;19936;-69
2021/12/16 08:48:15;;;;;;;;;;;4.80;99.90;;;;;;5044905;28;20226;-69
2021/12/16 08:50:44;;;;;;;;;;;4.80;99.90;;;;;;5044797;28;19925;-70
2021/12/16 08:53:11;;;;;;;;;;;4.90;99.90;;;;;;5031275;28;19921;-70
2021/12/16 08:55:38;;;;;;;;;;;4.80;99.90;;;;;;5024489;28;19922;-69
2021/12/16 08:58:05;;;;;;;;;;;4.90;99.90;;;;;;5024653;28;19925;-70
2021/12/16 09:00:34;;;;;;;;;;;4.80;99.90;;;;;;5024584;28;19928;-69
2021/12/16 09:03:00;;;;;;;;;;;4.80;99.90;;;;;;5024723;28;19921;-70
2021/12/16 09:05:29;;;;;;;;;;;4.90;99.90;;;;;;5023387;28;20128;-70
2021/12/16 09:07:55;;;;;;;;;;;4.90;99.90;;;;;;5022721;28;19921;-70
2021/12/16 09:10:25;;;;;;;;;;;4.90;99.90;;;;;;5023851;28;19921;-70
2021/12/16 09:13:02;;;;;;;;;;;4.90;99.90;;;;;;5039190;28;19921;-69
2021/12/16 09:15:30;;;;;;;;;;;4.90;99.90;;;;;;5042809;28;19929;-69
2021/12/16 09:17:56;;;;;;;;;;;4.90;99.90;;;;;;5043876;28;19921;-69
2021/12/16 09:20:24;;;;;;;;;;;5.00;99.90;;;;;;5044238;28;19921;-69
2021/12/16 09:22:52;;;;;;;;;;;4.90;99.90;;;;;;5044206;28;19929;-70
2021/12/16 09:25:18;;;;;;;;;;;4.90;99.90;;;;;;5043735;28;19925;-70
2021/12/16 09:27:45;;;;;;;;;;;4.90;99.90;;;;;;5044044;28;19920;-70
2021/12/16 09:30:15;;;;;;;;;;;5.00;99.90;;;;;;5043748;28;20147;-69
2021/12/16 09:32:41;;;;;;;;;;;5.00;99.90;;;;;;5044143;28;20112;-69
2021/12/16 09:35:09;;;;;;;;;;;5.00;99.90;;;;;;5042555;28;19928;-70
2021/12/16 09:37:36;;;;;;;;;;;5.00;99.90;;;;;;5043646;28;19921;-70
2021/12/16 09:40:06;;;;;;;;;;;5.10;99.90;;;;;;5043971;28;19921;-69
2021/12/16 09:42:35;;;;;;;;;;;5.10;99.90;;;;;;5043496;28;20234;-69
2021/12/16 09:45:02;;;;;;;;;;;5.10;99.90;;;;;;5043248;28;19927;-70
2021/12/16 09:47:28;;;;;;;;;;;5.10;99.90;;;;;;5042846;28;20123;-69
2021/12/16 09:49:55;;;;;;;;;;;5.10;99.90;;;;;;5043551;28;19921;-70
2021/12/16 09:52:21;;;;;;;;;;;5.10;99.90;;;;;;5043786;28;19950;-69
2021/12/16 09:54:48;;;;;;;;;;;5.10;99.90;;;;;;5042693;28;19940;-70
2021/12/16 09:57:16;;;;;;;;;;;5.20;99.90;;;;;;5043752;28;19921;-69
2021/12/16 09:59:43;;;;;;;;;;;5.10;99.90;;;;;;5043707;28;19928;-70
2021/12/16 10:02:12;;;;;;;;;;;5.10;99.90;;;;;;5043697;28;19928;-69
2021/12/16 10:04:39;;;;;;;;;;;5.10;99.90;;;;;;5043326;28;19928;-70
2021/12/16 10:07:07;;;;;;;;;;;5.10;99.90;;;;;;5042474;28;19928;-69
2021/12/16 10:09:34;;;;;;;;;;;5.20;99.90;;;;;;5043548;28;19921;-69
2021/12/16 10:12:06;;;;;;;;;;;5.20;99.90;;;;;;5043621;28;20134;-69
2021/12/16 10:14:48;;;;;;;;;;;5.10;99.90;;;;;;5042956;28;19960;-70
2021/12/16 10:20:05;;;;;;;;;;;5.30;99.90;;;;;;5043788;28;19979;-69
2021/12/16 10:22:36;;;;;;;;;;;5.30;99.90;;;;;;5047673;28;19921;-69
2021/12/16 10:25:18;;;;;;;;;;;5.40;99.90;;;;;;5047056;28;20082;-70
2021/12/16 10:27:52;;;;;;;;;;;5.40;99.90;;;;;;5047065;28;19921;-71
2021/12/16 10:30:20;;;;;;;;;;;5.40;99.90;;;;;;5046898;28;20147;-70
2021/12/16 10:32:49;;;;;;;;;;;5.40;99.90;;;;;;5047382;28;19936;-69
2021/12/16 10:35:17;;;;;;;;;;;5.40;99.90;;;;;;5046329;28;19976;-71
2021/12/16 10:37:45;;;;;;;;;;;5.40;99.90;;;;;;5047405;28;20139;-70
2021/12/16 10:40:40;;;;;;;;;;;5.40;99.90;;;;;;5047152;28;20227;-70
2021/12/16 10:43:09;;;;;;;;;;;5.40;99.90;;;;;;5023088;28;20127;-69
2021/12/16 10:45:38;;;;;;;;;;;5.50;99.90;;;;;;5046689;28;19921;-70
2021/12/16 10:48:16;;;;;;;;;;;5.50;99.90;;;;;;5046913;28;19927;-70
2021/12/16 10:50:47;;;;;;;;;;;5.50;99.90;;;;;;5046382;28;20116;-69
2021/12/16 10:53:14;;;;;;;;;;;5.50;99.90;;;;;;5046695;28;19927;-70
2021/12/16 10:55:54;;;;;;;;;;;5.50;99.90;;;;;;5045749;28;19996;-70
2021/12/16 10:58:21;;;;;;;;;;;5.60;99.90;;;;;;5046774;28;19921;-70
2021/12/16 11:00:49;;;;;;;;;;;5.60;99.90;;;;;;5046248;28;19925;-69
2021/12/16 11:03:39;;;;;;;;;;;5.60;99.90;;;;;;5046454;28;20231;-70
2021/12/16 11:06:20;;;;;;;;;;;5.60;99.90;;;;;;5043331;28;20239;-70
2021/12/16 11:08:48;;;;;;;;;;;5.70;99.90;;;;;;5045701;28;19925;-70
2021/12/16 11:11:15;;;;;;;;;;;5.70;99.90;;;;;;5045986;28;20279;-69
2021/12/16 11:13:42;;;;;;;;;;;5.80;99.90;;;;;;5045803;28;19921;-70
2021/12/16 11:16:08;;;;;;;;;;;5.80;99.90;;;;;;5045314;28;20245;-70
2021/12/16 11:18:39;;;;;;;;;;;5.80;99.90;;;;;;5046388;28;20197;-70
2021/12/16 11:21:07;;;;;;;;;;;5.80;99.90;;;;;;5045116;28;20257;-70
2021/12/16 11:23:37;;;;;;;;;;;5.90;99.90;;;;;;5045891;28;19928;-70
2021/12/16 11:26:06;;;;;;;;;;;5.90;99.90;;;;;;5044097;28;19944;-70
2021/12/16 11:28:35;;;;;;;;;;;6.00;99.90;;;;;;5045367;28;20212;-70
2021/12/16 11:31:03;;;;;;;;;;;6.10;99.90;;;;;;5046193;28;19963;-69
2021/12/16 11:33:32;;;;;;;;;;;6.10;99.90;;;;;;5045374;28;19921;-70
2021/12/16 11:36:01;;;;;;;;;;;6.20;99.90;;;;;;5042087;28;19959;-70
2021/12/16 11:38:35;;;;;;;;;;;6.20;99.90;;;;;;5044804;28;19921;-69
2021/12/16 11:41:11;;;;;;;;;;;6.20;99.90;;;;;;5045749;28;19922;-69
2021/12/16 11:43:40;;;;;;;;;;;6.20;99.90;;;;;;5045437;28;20137;-70
2021/12/16 11:46:11;;;;;;;;;;;6.30;99.90;;;;;;5044677;28;19921;-69
2021/12/16 11:48:40;;;;;;;;;;;6.40;99.90;;;;;;5046074;28;19920;-69
2021/12/16 11:51:10;;;;;;;;;;;6.40;99.90;;;;;;5044173;28;19956;-70
2021/12/16 11:53:39;;;;;;;;;;;6.40;99.90;;;;;;5044857;28;19929;-70
2021/12/16 11:56:06;;;;;;;;;;;6.50;99.90;;;;;;5043884;28;19927;-70
2021/12/16 11:58:34;;;;;;;;;;;6.70;99.90;;;;;;5044197;28;20212;-70
2021/12/16 12:01:11;;;;;;;;;;;6.60;99.90;;;;;;5045675;28;19925;-69
2021/12/16 12:03:38;;;;;;;;;;;6.70;99.90;;;;;;5041836;28;19921;-70
2021/12/16 12:06:04;;;;;;;;;;;6.80;99.90;;;;;;5040133;28;20128;-69
2021/12/16 12:08:32;;;;;;;;;;;6.90;99.90;;;;;;5045753;28;19927;-69
2021/12/16 12:11:00;;;;;;;;;;;7.00;99.90;;;;;;5045346;28;19921;-69
2021/12/16 12:13:28;;;;;;;;;;;7.00;99.90;;;;;;5045162;28;20312;-69
2021/12/16 12:15:58;;;;;;;;;;;7.00;99.90;;;;;;5043668;28;20205;-71
2021/12/16 12:18:36;;;;;;;;;;;7.00;99.90;;;;;;5044741;28;19927;-69
2021/12/16 12:21:16;;;;;;;;;;;6.90;99.90;;;;;;5045507;28;19928;-69
2021/12/16 12:23:43;;;;;;;;;;;6.90;99.90;;;;;;5044382;28;19921;-70
2021/12/16 12:26:12;;;;;;;;;;;6.80;99.90;;;;;;5044284;28;19928;-69
2021/12/16 12:28:39;;;;;;;;;;;6.70;99.90;;;;;;5045415;28;19953;-70
2021/12/16 12:31:07;;;;;;;;;;;6.70;99.90;;;;;;5044966;28;19921;-70
2021/12/16 12:33:33;;;;;;;;;;;6.70;99.90;;;;;;5044633;28;20227;-70
2021/12/16 12:36:01;;;;;;;;;;;6.70;99.90;;;;;;5044995;28;19927;-70
2021/12/16 12:38:28;;;;;;;;;;;6.80;99.90;;;;;;5044349;28;20166;-70
2021/12/16 12:40:55;;;;;;;;;;;6.80;99.90;;;;;;5045080;28;19921;-69
2021/12/16 12:43:22;;;;;;;;;;;6.80;99.90;;;;;;5043056;28;19921;-70
2021/12/16 12:45:52;;;;;;;;;;;6.70;99.90;;;;;;5043051;28;19921;-69
2021/12/16 12:48:21;;;;;;;;;;;6.70;99.90;;;;;;5044933;28;19921;-70
2021/12/16 12:50:48;;;;;;;;;;;6.70;99.90;;;;;;5044792;28;19928;-70
2021/12/16 12:53:16;;;;;;;;;;;6.70;99.90;;;;;;5044431;28;19921;-70
2021/12/16 12:55:44;;;;;;;;;;;6.70;99.90;;;;;;5043195;28;19921;-70
2021/12/16 12:58:12;;;;;;;;;;;6.70;99.90;;;;;;5043896;28;19928;-70
2021/12/16 13:00:40;;;;;;;;;;;6.60;99.90;;;;;;5044657;28;20120;-70
2021/12/16 13:03:08;;;;;;;;;;;6.60;99.90;;;;;;5044313;28;20231;-70
2021/12/16 13:05:36;;;;;;;;;;;6.60;99.90;;;;;;5042356;28;19928;-69
2021/12/16 13:08:07;;;;;;;;;;;6.60;99.90;;;;;;5041865;28;19927;-69
2021/12/16 13:10:36;;;;;;;;;;;6.60;99.90;;;;;;5044575;28;19927;-69
2021/12/16 13:13:22;;;;;;;;;;;6.60;99.90;;;;;;5044422;28;19921;-70
2021/12/16 13:15:55;;;;;;;;;;;6.60;99.90;;;;;;5040466;28;19921;-70
2021/12/16 13:24:12;;;;;;;;;;;6.70;99.90;;;;;;5023285;28;19929;-71
2021/12/16 13:26:42;;;;;;;;;;;6.80;99.90;;;;;;5023817;28;19960;-70
2021/12/16 13:29:14;;;;;;;;;;;6.80;99.90;;;;;;5026888;28;19929;-70
2021/12/16 13:31:51;;;;;;;;;;;6.80;99.90;;;;;;5041490;28;20112;-69
2021/12/16 13:34:25;;;;;;;;;;;6.90;99.90;;;;;;5042678;28;19967;-69
2021/12/16 13:36:56;;;;;;;;;;;6.90;99.90;;;;;;5043033;28;19984;-70
2021/12/16 13:39:24;;;;;;;;;;;6.90;99.90;;;;;;5043187;28;19963;-71
2021/12/16 13:41:55;;;;;;;;;;;6.90;99.90;;;;;;5043820;28;19928;-69
2021/12/16 13:44:36;;;;;;;;;;;6.90;99.90;;;;;;5042822;28;19921;-69
2021/12/16 13:47:08;;;;;;;;;;;6.80;99.90;;;;;;5024013;28;19921;-70
2021/12/16 14:01:27;;;;;;;;;;;6.80;99.90;;;;;;5042298;28;19924;-70
2021/12/16 14:04:05;;;;;;;;;;;6.70;99.90;;;;;;5042647;28;19921;-71
2021/12/16 14:06:36;;;;;;;;;;;6.80;99.90;;;;;;5041783;28;19937;-70
2021/12/16 14:09:15;;;;;;;;;;;6.80;99.90;;;;;;5042985;28;19949;-70
2021/12/16 14:13:07;;;;;;;;;;;6.80;99.90;;;;;;5043587;28;19983;-71
2021/12/16 14:15:13;;;;;;;;;;;6.80;99.90;;;;;;5041681;28;20250;-71
2021/12/16 14:17:49;;;;;;;;;;;6.80;99.90;;;;;;5043247;28;19956;-71
2021/12/16 14:23:08;;;;;;;;;;;6.80;99.90;;;;;;5043136;28;19963;-71
2021/12/16 14:25:41;;;;;;;;;;;6.90;99.90;;;;;;5041829;28;19929;-71
2021/12/16 14:31:23;;;;;;;;;;;6.90;99.90;;;;;;5033291;28;19924;-73
2021/12/16 14:39:59;;;;;;;;;;;6.80;99.90;;;;;;5023628;28;19925;-71
2021/12/16 14:42:38;;;;;;;;;;;6.80;99.90;;;;;;5023590;28;20012;-70
2021/12/16 14:45:25;;;;;;;;;;;6.70;99.90;;;;;;5022317;28;19925;-71
2021/12/16 14:48:08;;;;;;;;;;;6.70;99.90;;;;;;5041417;28;19921;-70
2021/12/16 14:50:36;;;;;;;;;;;6.70;99.90;;;;;;5043370;28;19980;-71
2021/12/16 14:53:12;;;;;;;;;;;6.70;99.90;;;;;;5043150;28;19984;-71
2021/12/16 14:55:38;;;;;;;;;;;6.70;99.90;;;;;;5042560;28;19921;-71
2021/12/16 14:58:06;;;;;;;;;;;6.70;99.90;;;;;;5037668;28;20155;-69
2021/12/16 15:00:37;;;;;;;;;;;6.70;99.90;;;;;;5042936;28;20143;-71
2021/12/16 15:03:08;;;;;;;;;;;6.70;99.90;;;;;;5042679;28;20036;-70
2021/12/16 15:05:38;;;;;;;;;;;6.60;99.90;;;;;;5042522;28;19967;-71
2021/12/16 15:08:06;;;;;;;;;;;6.70;99.90;;;;;;5046418;28;20101;-72
2021/12/16 15:10:33;;;;;;;;;;;6.70;99.90;;;;;;5046523;28;19959;-71
2021/12/16 15:13:06;;;;;;;;;;;6.70;99.90;;;;;;5046139;28;19921;-71
2021/12/16 15:15:41;;;;;;;;;;;6.70;99.90;;;;;;5042209;28;20112;-72
2021/12/16 15:37:56;;;;;;;;;;;6.60;99.90;;;;;;5048837;28;19984;-69
2021/12/16 15:40:35;;;;;;;;;;;6.60;99.90;;;;;;5041338;28;20162;-69
2021/12/16 15:43:03;;;;;;;;;;;6.60;99.90;;;;;;5063167;28;20208;-69
2021/12/16 15:45:33;;;;;;;;;;;6.60;99.90;;;;;;5044706;28;19921;-70
2021/12/16 15:48:02;;;;;;;;;;;6.60;99.90;;;;;;5044313;28;19921;-68
2021/12/16 15:50:31;;;;;;;;;;;6.60;99.90;;;;;;5046460;28;19928;-69
2021/12/16 15:52:58;;;;;;;;;;;6.60;99.90;;;;;;5024538;28;19922;-70
2021/12/16 15:55:28;;;;;;;;;;;6.70;99.90;;;;;;5024884;28;19922;-69
2021/12/16 15:57:59;;;;;;;;;;;6.60;99.90;;;;;;5024702;28;19921;-69
2021/12/16 16:00:25;;;;;;;;;;;6.60;99.90;;;;;;5043628;28;19940;-70
2021/12/16 16:02:56;;;;;;;;;;;6.50;99.90;;;;;;5043651;28;19984;-69
2021/12/16 16:05:30;;;;;;;;;;;6.50;99.90;;;;;;5044669;28;19921;-70
2021/12/16 16:07:58;;;;;;;;;;;6.60;99.90;;;;;;5065567;28;19928;-69
2021/12/16 16:10:24;;;;;;;;;;;6.50;99.90;;;;;;5057821;28;19943;-69
2021/12/16 16:12:51;;;;;;;;;;;6.50;99.90;;;;;;5065243;28;19921;-69
2021/12/16 16:15:19;;;;;;;;;;;6.50;99.90;;;;;;5058304;28;19921;-70
2021/12/16 16:17:55;;;;;;;;;;;6.50;99.90;;;;;;5043130;28;19929;-70
2021/12/16 16:20:27;;;;;;;;;;;6.50;99.90;;;;;;5045753;28;20111;-69
2021/12/16 16:22:54;;;;;;;;;;;6.50;99.90;;;;;;5045159;28;19921;-70
2021/12/16 16:25:21;;;;;;;;;;;6.50;99.90;;;;;;5042569;28;19971;-70
2021/12/16 16:27:48;;;;;;;;;;;6.50;99.90;;;;;;5047730;28;20226;-70
2021/12/16 16:30:17;;;;;;;;;;;6.50;99.90;;;;;;5061786;28;19921;-69
2021/12/16 16:33:01;;;;;;;;;;;6.50;99.90;;;;;;5064190;28;19956;-69
2021/12/16 16:35:30;;;;;;;;;;;6.40;99.90;;;;;;5051545;28;19921;-69
2021/12/16 16:38:07;;;;;;;;;;;6.40;99.90;;;;;;5056505;28;19929;-70
2021/12/16 16:40:36;;;;;;;;;;;6.40;99.90;;;;;;5044652;28;19925;-70
2021/12/16 16:43:03;;;;;;;;;;;6.40;99.90;;;;;;5063672;28;19920;-69
2021/12/16 16:45:31;;;;;;;;;;;6.40;99.90;;;;;;5024255;28;20121;-69
2021/12/16 16:48:06;;;;;;;;;;;6.40;99.90;;;;;;5048384;28;20235;-69
2021/12/16 16:50:38;;;;;;;;;;;6.40;99.90;;;;;;5051380;28;19921;-70
2021/12/16 16:53:04;;;;;;;;;;;6.40;99.90;;;;;;5036819;28;20259;-68
2021/12/16 16:55:33;;;;;;;;;;;6.40;99.90;;;;;;5031017;28;19921;-68
2021/12/16 16:58:01;;;;;;;;;;;6.40;99.90;;;;;;5044593;28;19921;-67
2021/12/16 17:00:32;;;;;;;;;;;6.40;99.90;;;;;;5044305;28;19921;-68
2021/12/16 17:03:00;;;;;;;;;;;6.40;99.90;;;;;;5044486;28;19928;-67
2021/12/16 17:05:29;;;;;;;;;;;6.40;99.90;;;;;;5043971;28;19982;-68
2021/12/16 17:08:00;;;;;;;;;;;6.40;99.90;;;;;;5030616;28;19944;-67
2021/12/16 17:10:31;;;;;;;;;;;6.40;99.90;;;;;;5044056;28;19921;-68
2021/12/16 17:13:02;;;;;;;;;;;6.40;99.90;;;;;;5044018;28;19921;-68
2021/12/16 17:15:36;;;;;;;;;;;6.40;99.90;;;;;;5043375;28;19921;-68
2021/12/16 17:18:02;;;;;;;;;;;6.40;99.90;;;;;;5044186;28;19957;-68
2021/12/16 17:20:29;;;;;;;;;;;6.40;99.90;;;;;;5042089;28;19927;-69
2021/12/16 17:22:59;;;;;;;;;;;6.40;99.90;;;;;;5064195;28;19921;-68